createdAt,value
2017-06-28T00:00:45.461Z,7.20
2017-06-28T00:03:12.775Z,6.93
2017-06-28T00:05:40.103Z,7.87
2017-06-28T00:08:07.411Z,7.60
2017-06-28T00:10:34.741Z,8.03
2017-06-28T00:13:02.062Z,7.07
2017-06-28T00:15:29.398Z,7.30
2017-06-28T00:17:56.707Z,7.70
2017-06-28T00:20:24.027Z,7.13
2017-06-28T00:22:51.503Z,6.77
2017-06-28T00:25:18.805Z,7.30
2017-06-28T00:27:46.125Z,7.63
2017-06-28T00:30:13.421Z,7.30
2017-06-28T00:32:40.737Z,6.87
2017-06-28T00:35:08.041Z,7.53
2017-06-28T00:37:35.386Z,7.40
2017-06-28T00:40:02.695Z,7.43
2017-06-28T00:42:30.657Z,7.00
2017-06-28T00:44:57.969Z,7.73
2017-06-28T00:47:25.277Z,7.30
2017-06-28T00:49:52.889Z,7.47
2017-06-28T00:52:20.522Z,7.20
2017-06-28T00:54:47.865Z,8.13
2017-06-28T00:57:15.219Z,7.20
2017-06-28T00:59:42.547Z,7.50
2017-06-28T01:02:09.905Z,7.00
2017-06-28T01:04:37.270Z,6.70
2017-06-28T01:07:04.577Z,7.00
2017-06-28T01:09:31.921Z,6.53
2017-06-28T01:11:59.278Z,6.93
2017-06-28T01:14:26.610Z,7.07
2017-06-28T01:16:53.908Z,6.97
2017-06-28T01:19:21.263Z,6.80
2017-06-28T01:21:48.560Z,7.73
2017-06-28T01:24:15.889Z,7.40
2017-06-28T01:26:43.502Z,7.57
2017-06-28T01:29:10.809Z,7.20
2017-06-28T01:31:38.293Z,7.03
2017-06-28T01:34:05.636Z,7.47
2017-06-28T01:36:32.978Z,6.60
2017-06-28T01:39:00.308Z,6.80
2017-06-28T01:41:27.626Z,7.10
2017-06-28T01:43:54.927Z,6.40
2017-06-28T01:46:22.244Z,7.00
2017-06-28T01:48:49.568Z,6.73
2017-06-28T01:51:16.872Z,7.07
2017-06-28T01:53:44.257Z,7.07
2017-06-28T01:56:12.547Z,6.13
2017-06-28T01:58:39.849Z,6.50
2017-06-28T02:01:07.155Z,6.60
2017-06-28T02:03:34.470Z,6.70
2017-06-28T02:06:01.793Z,6.63
2017-06-28T02:08:29.104Z,6.33
2017-06-28T02:10:56.421Z,7.30
2017-06-28T02:13:23.707Z,6.33
2017-06-28T02:15:51.063Z,6.23
2017-06-28T02:18:18.390Z,5.90
2017-06-28T02:20:45.728Z,6.40
2017-06-28T02:23:13.087Z,6.70
2017-06-28T02:25:40.389Z,6.50
2017-06-28T02:28:07.701Z,6.30
2017-06-28T02:30:34.995Z,6.53
2017-06-28T02:33:02.318Z,6.13
2017-06-28T02:35:29.622Z,6.70
2017-06-28T02:37:56.936Z,6.50
2017-06-28T02:40:24.253Z,6.40
2017-06-28T02:42:51.605Z,6.77
2017-06-28T02:45:19.017Z,5.93
2017-06-28T02:47:47.297Z,6.30
2017-06-28T02:50:14.605Z,6.40
2017-06-28T02:52:41.920Z,5.93
2017-06-28T02:55:09.271Z,6.50
2017-06-28T02:57:36.559Z,6.23
2017-06-28T03:00:03.912Z,6.43
2017-06-28T03:02:31.246Z,6.63
2017-06-28T03:04:58.570Z,5.80
2017-06-28T03:07:25.860Z,6.40
2017-06-28T03:09:53.176Z,6.07
2017-06-28T03:12:20.525Z,6.53
2017-06-28T03:14:47.873Z,6.80
2017-06-28T03:17:15.185Z,6.47
2017-06-28T03:19:42.530Z,6.13
2017-06-28T03:22:09.866Z,6.20
2017-06-28T03:24:37.222Z,6.30
2017-06-28T03:27:04.523Z,6.73
2017-06-28T03:29:31.839Z,5.80
2017-06-28T03:31:59.164Z,7.30
2017-06-28T03:34:26.503Z,6.30
2017-06-28T03:36:53.832Z,5.90
2017-06-28T03:39:21.142Z,6.07
2017-06-28T03:41:48.471Z,7.00
2017-06-28T03:44:15.856Z,6.63
2017-06-28T03:46:43.192Z,6.27
2017-06-28T03:49:10.507Z,6.10
2017-06-28T03:51:37.824Z,6.50
2017-06-28T03:54:05.137Z,6.63
2017-06-28T03:56:32.459Z,6.03
2017-06-28T03:58:59.761Z,6.37
2017-06-28T04:01:27.050Z,6.37
2017-06-28T04:03:54.390Z,7.80
2017-06-28T04:06:21.709Z,6.80
2017-06-28T04:08:49.389Z,6.80
2017-06-28T04:11:17.210Z,7.13
2017-06-28T04:13:44.566Z,7.47
2017-06-28T04:16:11.899Z,7.47
2017-06-28T04:18:39.219Z,7.20
2017-06-28T04:21:06.567Z,7.40
2017-06-28T04:23:33.943Z,10.93
2017-06-28T04:26:01.249Z,7.20
2017-06-28T04:28:28.588Z,8.40
2017-06-28T04:30:55.931Z,7.60
2017-06-28T04:33:23.291Z,7.70
2017-06-28T04:35:50.615Z,7.60
2017-06-28T04:38:17.955Z,9.40
2017-06-28T04:40:45.607Z,7.43
2017-06-28T04:43:12.992Z,8.00
2017-06-28T04:45:40.283Z,8.60
2017-06-28T04:48:07.617Z,7.57
2017-06-28T04:50:34.929Z,7.70
2017-06-28T04:53:02.219Z,7.60
2017-06-28T04:55:29.573Z,8.17
2017-06-28T04:57:57.178Z,7.33
2017-06-28T05:00:24.501Z,8.13
2017-06-28T05:02:51.814Z,8.03
2017-06-28T05:05:19.273Z,9.00
2017-06-28T05:07:46.862Z,8.53
2017-06-28T05:10:14.616Z,8.77
2017-06-28T05:12:41.956Z,8.63
2017-06-28T05:15:09.325Z,8.43
2017-06-28T05:17:36.655Z,8.70
2017-06-28T05:20:04.004Z,8.47
2017-06-28T05:22:31.335Z,8.63
2017-06-28T05:24:58.691Z,8.13
2017-06-28T05:27:26.014Z,8.40
2017-06-28T05:29:53.356Z,8.20
2017-06-28T05:32:20.688Z,8.03
2017-06-28T05:34:48.052Z,9.13
2017-06-28T05:37:15.399Z,8.20
2017-06-28T05:39:42.721Z,8.87
2017-06-28T05:42:10.063Z,8.80
2017-06-28T05:44:37.386Z,8.80
2017-06-28T05:47:04.716Z,8.93
2017-06-28T05:49:32.027Z,9.07
2017-06-28T05:51:59.339Z,8.73
2017-06-28T05:54:26.653Z,9.43
2017-06-28T05:56:53.968Z,8.90
2017-06-28T05:59:21.313Z,9.10
2017-06-28T06:01:48.627Z,9.60
2017-06-28T06:04:16.117Z,8.77
2017-06-28T06:06:43.463Z,9.40
2017-06-28T06:09:10.862Z,9.73
2017-06-28T06:11:38.153Z,8.47
2017-06-28T06:14:05.505Z,9.77
2017-06-28T06:16:32.826Z,9.83
2017-06-28T06:19:00.195Z,8.60
2017-06-28T06:21:27.516Z,9.60
2017-06-28T06:23:54.870Z,9.13
2017-06-28T06:26:22.195Z,9.00
2017-06-28T06:28:49.574Z,9.53
2017-06-28T06:31:16.881Z,9.07
2017-06-28T06:33:44.532Z,9.57
2017-06-28T06:36:11.863Z,9.07
2017-06-28T06:38:39.203Z,9.13
2017-06-28T06:41:06.520Z,9.83
2017-06-28T06:43:33.803Z,9.70
2017-06-28T06:46:01.152Z,9.33
2017-06-28T06:48:28.475Z,10.30
2017-06-28T06:50:56.161Z,10.17
2017-06-28T06:53:23.481Z,9.70
2017-06-28T06:55:50.842Z,10.00
2017-06-28T06:58:18.155Z,9.77
2017-06-28T07:00:45.479Z,9.40
2017-06-28T07:03:12.816Z,9.63
2017-06-28T07:05:40.140Z,8.97
2017-06-28T07:08:07.435Z,10.03
2017-06-28T07:10:34.755Z,10.13
2017-06-28T07:13:03.010Z,8.60
2017-06-28T07:15:30.668Z,9.10
2017-06-28T07:17:58.007Z,9.17
2017-06-28T07:20:25.339Z,8.90
2017-06-28T07:22:52.739Z,9.43
2017-06-28T07:25:20.031Z,9.53
2017-06-28T07:27:47.378Z,8.50
2017-06-28T07:30:14.683Z,8.93
2017-06-28T07:32:42.017Z,8.80
2017-06-28T07:35:09.316Z,8.90
2017-06-28T07:37:36.637Z,8.90
2017-06-28T07:40:03.947Z,8.97
2017-06-28T07:42:31.255Z,9.60
2017-06-28T07:44:58.564Z,8.67
2017-06-28T07:47:25.897Z,8.90
2017-06-28T07:49:53.231Z,8.53
2017-06-28T07:52:20.580Z,8.90
2017-06-28T07:54:47.916Z,8.80
2017-06-28T07:57:15.548Z,8.47
2017-06-28T07:59:42.929Z,9.10
2017-06-28T08:02:10.245Z,8.73
2017-06-28T08:04:37.601Z,9.13
2017-06-28T08:07:04.890Z,8.67
2017-06-28T08:09:32.228Z,8.10
2017-06-28T08:11:59.532Z,8.30
2017-06-28T08:14:26.860Z,8.60
2017-06-28T08:17:04.104Z,8.83
2017-06-28T08:19:31.412Z,9.30
2017-06-28T08:21:58.700Z,8.47
2017-06-28T08:24:26.343Z,8.87
2017-06-28T08:26:53.712Z,9.10
2017-06-28T08:29:21.045Z,8.90
2017-06-28T08:31:48.408Z,8.80
2017-06-28T08:34:15.729Z,8.33
2017-06-28T08:36:43.073Z,9.30
2017-06-28T08:39:10.363Z,8.40
2017-06-28T08:41:37.685Z,8.80
2017-06-28T08:44:04.979Z,8.50
2017-06-28T08:46:32.315Z,8.53
2017-06-28T08:48:59.640Z,9.17
2017-06-28T08:51:26.966Z,9.03
2017-06-28T08:53:54.312Z,8.50
2017-06-28T08:56:21.641Z,9.53
2017-06-28T08:58:48.950Z,9.80
2017-06-28T09:01:16.273Z,9.00
2017-06-28T09:03:43.584Z,8.67
2017-06-28T09:06:10.895Z,9.30
2017-06-28T09:08:38.225Z,9.73
2017-06-28T09:11:05.625Z,9.17
2017-06-28T09:13:32.977Z,9.63
2017-06-28T09:16:00.305Z,8.80
2017-06-28T09:18:27.666Z,8.43
2017-06-28T09:20:54.985Z,8.90
2017-06-28T09:23:22.450Z,9.07
2017-06-28T09:25:49.778Z,8.70
2017-06-28T09:28:17.133Z,8.93
2017-06-28T09:30:44.748Z,9.30
2017-06-28T09:33:12.068Z,9.13
2017-06-28T09:35:39.389Z,9.40
2017-06-28T09:38:06.736Z,8.70
2017-06-28T09:40:34.042Z,9.20
2017-06-28T09:43:01.407Z,9.03
2017-06-28T09:45:28.724Z,9.07
2017-06-28T09:47:56.030Z,8.30
2017-06-28T09:50:23.364Z,9.10
2017-06-28T09:52:50.656Z,9.10
2017-06-28T09:55:17.997Z,8.73
2017-06-28T09:57:45.295Z,9.03
2017-06-28T10:00:12.624Z,9.73
2017-06-28T10:02:39.934Z,9.43
2017-06-28T10:05:07.248Z,9.03
2017-06-28T10:07:34.572Z,9.17
2017-06-28T10:10:01.967Z,8.40
2017-06-28T10:12:29.261Z,9.03
2017-06-28T10:14:56.840Z,8.80
2017-06-28T10:17:24.126Z,9.00
2017-06-28T10:19:51.506Z,8.53
2017-06-28T10:22:18.828Z,8.57
2017-06-28T10:24:46.166Z,8.70
2017-06-28T10:27:13.472Z,8.20
2017-06-28T10:29:40.780Z,8.13
2017-06-28T10:32:08.122Z,8.77
2017-06-28T10:34:35.437Z,8.87
2017-06-28T10:37:02.755Z,7.87
2017-06-28T10:39:30.063Z,9.60
2017-06-28T10:41:57.384Z,8.70
2017-06-28T10:44:24.694Z,8.87
2017-06-28T10:46:52.041Z,8.60
2017-06-28T10:49:19.352Z,8.80
2017-06-28T10:51:46.682Z,9.00
2017-06-28T10:54:13.967Z,9.23
2017-06-28T10:56:41.337Z,9.17
2017-06-28T10:59:08.639Z,8.43
2017-06-28T11:01:35.989Z,9.33
2017-06-28T11:04:03.291Z,8.80
2017-06-28T11:06:30.655Z,8.70
2017-06-28T11:08:57.955Z,8.73
2017-06-28T11:11:26.065Z,9.17
2017-06-28T11:13:53.414Z,8.93
2017-06-28T11:16:20.719Z,9.20
2017-06-28T11:18:48.060Z,9.23
2017-06-28T11:21:15.348Z,8.70
2017-06-28T11:23:42.696Z,9.07
2017-06-28T11:26:10.005Z,8.77
2017-06-28T11:28:37.362Z,8.97
2017-06-28T11:31:04.673Z,8.10
2017-06-28T11:33:31.997Z,8.70
2017-06-28T11:35:59.297Z,8.40
2017-06-28T11:38:27.089Z,7.73
2017-06-28T11:40:54.382Z,7.90
2017-06-28T11:43:21.684Z,8.90
2017-06-28T11:45:48.997Z,7.80
2017-06-28T11:48:16.289Z,7.60
2017-06-28T11:50:43.632Z,8.00
2017-06-28T11:53:10.934Z,8.27
2017-06-28T11:55:38.240Z,8.10
2017-06-28T11:58:05.548Z,7.87
2017-06-28T12:00:32.928Z,8.20
2017-06-28T12:03:00.226Z,8.30
2017-06-28T12:05:27.556Z,8.07
2017-06-28T12:07:54.841Z,8.20
2017-06-28T12:10:22.167Z,7.90
2017-06-28T12:12:49.806Z,7.60
2017-06-28T12:15:17.128Z,8.40
2017-06-28T12:17:44.429Z,7.57
2017-06-28T12:20:11.728Z,7.40
2017-06-28T12:22:39.071Z,7.67
2017-06-28T12:25:06.421Z,7.43
2017-06-28T12:27:33.748Z,7.83
2017-06-28T12:30:01.081Z,7.77
2017-06-28T12:32:28.415Z,7.40
2017-06-28T12:34:55.771Z,7.70
2017-06-28T12:37:23.124Z,7.90
2017-06-28T12:39:50.433Z,7.10
2017-06-28T12:42:17.747Z,8.70
2017-06-28T12:44:45.235Z,7.03
2017-06-28T12:47:12.587Z,7.10
2017-06-28T12:49:40.325Z,6.87
2017-06-28T12:52:07.655Z,7.10
2017-06-28T12:54:35.003Z,7.70
2017-06-28T12:57:02.348Z,7.87
2017-06-28T12:59:29.687Z,7.93
2017-06-28T13:01:57.038Z,7.83
2017-06-28T13:04:24.358Z,7.47
2017-06-28T13:06:51.662Z,7.43
2017-06-28T13:09:18.977Z,7.80
2017-06-28T13:11:46.272Z,8.70
2017-06-28T13:14:13.589Z,7.73
2017-06-28T13:16:40.893Z,7.90
2017-06-28T13:19:08.220Z,8.10
2017-06-28T13:21:35.535Z,7.77
2017-06-28T13:24:02.901Z,8.77
2017-06-28T13:26:30.511Z,8.47
2017-06-28T13:28:57.870Z,8.30
2017-06-28T13:31:25.175Z,9.10
2017-06-28T13:33:52.532Z,9.40
2017-06-28T13:36:20.010Z,9.60
2017-06-28T13:38:47.389Z,9.20
2017-06-28T13:41:14.701Z,9.60
2017-06-28T13:43:42.025Z,9.03
2017-06-28T13:46:09.393Z,9.40
2017-06-28T13:48:36.714Z,9.50
2017-06-28T13:51:04.087Z,9.40
2017-06-28T13:53:31.401Z,10.17
2017-06-28T13:55:58.732Z,9.50
2017-06-28T13:58:26.417Z,10.60
2017-06-28T14:00:53.733Z,11.30
2017-06-28T14:03:21.097Z,10.23
2017-06-28T14:05:48.437Z,10.00
2017-06-28T14:08:15.759Z,11.23
2017-06-28T14:10:43.142Z,10.37
2017-06-28T14:13:10.473Z,10.60
2017-06-28T14:15:37.783Z,10.60
2017-06-28T14:18:05.106Z,11.03
2017-06-28T14:20:32.413Z,11.13
2017-06-28T14:22:59.743Z,11.33
2017-06-28T14:25:27.060Z,11.30
2017-06-28T14:27:54.394Z,12.00
2017-06-28T14:30:21.695Z,12.03
2017-06-28T14:32:49.016Z,11.80
2017-06-28T14:35:16.328Z,12.00
2017-06-28T14:37:43.658Z,12.20
2017-06-28T14:40:10.979Z,12.30
2017-06-28T14:42:38.344Z,13.13
2017-06-28T14:45:05.964Z,12.23
2017-06-28T14:47:33.341Z,13.50
2017-06-28T14:50:00.941Z,12.27
2017-06-28T14:52:28.239Z,12.40
2017-06-28T14:54:55.577Z,13.00
2017-06-28T14:57:22.892Z,13.50
2017-06-28T14:59:50.227Z,13.87
2017-06-28T15:02:17.556Z,13.17
2017-06-28T15:04:45.236Z,15.80
2017-06-28T15:07:12.550Z,17.77
2017-06-28T15:09:39.915Z,18.43
2017-06-28T15:12:07.243Z,17.10
2017-06-28T15:14:34.594Z,16.97
2017-06-28T15:17:01.901Z,16.20
2017-06-28T15:19:29.233Z,16.27
2017-06-28T15:21:56.541Z,15.60
2017-06-28T15:24:23.864Z,14.80
2017-06-28T15:26:51.173Z,11.80
2017-06-28T15:29:18.485Z,11.73
2017-06-28T15:31:45.810Z,12.37
2017-06-28T15:34:13.328Z,18.57
2017-06-28T15:36:40.690Z,20.43
2017-06-28T15:39:08.027Z,20.20
2017-06-28T15:41:35.375Z,20.93
2017-06-28T15:44:02.690Z,21.93
2017-06-28T15:46:30.031Z,20.37
2017-06-28T15:48:57.361Z,19.63
2017-06-28T15:51:24.696Z,20.30
2017-06-28T15:53:58.084Z,17.70
2017-06-28T15:56:30.322Z,18.07
2017-06-28T15:58:57.681Z,17.50
2017-06-28T16:01:25.052Z,19.40
2017-06-28T16:03:52.378Z,17.90
2017-06-28T16:06:19.700Z,18.13
2017-06-28T16:08:47.062Z,17.77
2017-06-28T16:11:14.389Z,17.00
2017-06-28T16:13:41.757Z,17.50
2017-06-28T16:16:09.060Z,15.53
2017-06-28T16:18:36.399Z,15.53
2017-06-28T16:21:03.745Z,17.87
2017-06-28T16:23:31.396Z,16.77
2017-06-28T16:25:58.938Z,17.43
2017-06-28T16:28:26.637Z,17.90
2017-06-28T16:30:53.940Z,16.50
2017-06-28T16:33:21.259Z,15.10
2017-06-28T16:35:48.609Z,13.73
2017-06-28T16:38:15.983Z,13.70
2017-06-28T16:40:43.279Z,15.33
2017-06-28T16:43:10.626Z,14.40
2017-06-28T16:45:38.010Z,14.10
2017-06-28T16:48:05.317Z,14.57
2017-06-28T16:50:32.683Z,13.90
2017-06-28T16:53:00.298Z,14.63
2017-06-28T16:55:27.652Z,14.70
2017-06-28T16:57:55.003Z,14.70
2017-06-28T17:00:22.345Z,14.50
2017-06-28T17:02:49.656Z,14.00
2017-06-28T17:05:16.983Z,12.97
2017-06-28T17:07:44.283Z,13.30
2017-06-28T17:10:11.605Z,13.90
2017-06-28T17:12:39.246Z,13.20
2017-06-28T17:15:06.595Z,12.53
2017-06-28T17:17:33.907Z,13.63
2017-06-28T17:20:01.303Z,13.03
2017-06-28T17:22:28.617Z,13.10
2017-06-28T17:24:55.964Z,13.00
2017-06-28T17:27:23.275Z,12.20
2017-06-28T17:29:50.655Z,12.77
2017-06-28T17:32:17.996Z,12.83
2017-06-28T17:34:46.525Z,12.43
2017-06-28T17:37:13.888Z,12.47
2017-06-28T17:39:41.263Z,11.87
2017-06-28T17:42:08.598Z,12.90
2017-06-28T17:44:35.903Z,12.73
2017-06-28T17:47:03.230Z,13.17
2017-06-28T17:49:30.590Z,13.50
2017-06-28T17:51:57.959Z,13.37
2017-06-28T17:54:25.295Z,13.73
2017-06-28T17:56:52.611Z,15.23
2017-06-28T17:59:19.925Z,15.17
2017-06-28T18:01:47.451Z,14.17
2017-06-28T18:04:14.831Z,14.40
2017-06-28T18:06:42.205Z,14.47
2017-06-28T18:09:09.549Z,14.40
2017-06-28T18:11:37.169Z,14.50
2017-06-28T18:14:04.530Z,15.07
2017-06-28T18:16:31.859Z,14.60
2017-06-28T18:18:59.219Z,14.70
2017-06-28T18:21:26.523Z,15.00
2017-06-28T18:23:53.894Z,16.70
2017-06-28T18:26:21.233Z,15.07
2017-06-28T18:28:48.564Z,15.27
2017-06-28T18:31:15.923Z,15.40
2017-06-28T18:33:43.258Z,15.17
2017-06-28T18:36:10.597Z,15.30
2017-06-28T18:38:37.945Z,15.43
2017-06-28T18:41:05.309Z,16.37
2017-06-28T18:43:32.644Z,16.60
2017-06-28T18:45:59.990Z,16.47
2017-06-28T18:48:27.288Z,15.87
2017-06-28T18:50:54.614Z,16.30
2017-06-28T18:53:21.906Z,15.90
2017-06-28T18:55:49.241Z,16.20
2017-06-28T18:58:16.560Z,15.50
2017-06-28T19:00:43.894Z,14.37
2017-06-28T19:03:11.233Z,15.50
2017-06-28T19:05:38.571Z,14.77
2017-06-28T19:08:05.930Z,17.10
2017-06-28T19:10:33.251Z,18.40
2017-06-28T19:13:00.578Z,18.57
2017-06-28T19:15:27.905Z,19.80
2017-06-28T19:17:55.280Z,21.60
2017-06-28T19:20:22.617Z,24.33
2017-06-28T19:22:49.978Z,24.10
2017-06-28T19:25:17.297Z,25.40
2017-06-28T19:27:44.663Z,27.70
2017-06-28T19:30:12.002Z,27.10
2017-06-28T19:32:39.374Z,29.17
2017-06-28T19:35:06.682Z,29.80
2017-06-28T19:37:34.026Z,29.50
2017-06-28T19:40:01.382Z,29.97
2017-06-28T19:42:28.708Z,36.50
2017-06-28T19:44:56.034Z,31.70
2017-06-28T19:47:23.397Z,31.77
2017-06-28T19:49:50.717Z,32.17
2017-06-28T19:52:18.084Z,32.40
2017-06-28T19:54:45.603Z,34.60
2017-06-28T19:57:12.933Z,33.77
2017-06-28T19:59:40.409Z,34.60
2017-06-28T20:02:07.724Z,35.13
2017-06-28T20:04:35.074Z,33.80
2017-06-28T20:07:02.422Z,35.50
2017-06-28T20:09:29.747Z,36.27
2017-06-28T20:11:57.089Z,35.83
2017-06-28T20:14:24.435Z,37.43
2017-06-28T20:16:51.777Z,38.60
2017-06-28T20:19:19.125Z,36.80
2017-06-28T20:21:46.440Z,37.80
2017-06-28T20:24:13.795Z,37.77
2017-06-28T20:26:41.092Z,39.37
2017-06-28T20:29:08.406Z,40.47
2017-06-28T20:31:35.719Z,41.27
2017-06-28T20:34:03.060Z,40.50
2017-06-28T20:36:30.433Z,42.70
2017-06-28T20:38:57.743Z,43.60
2017-06-28T20:41:25.089Z,44.27
2017-06-28T20:43:52.426Z,44.50
2017-06-28T20:46:19.772Z,41.77
2017-06-28T20:48:47.091Z,40.20
2017-06-28T20:51:14.456Z,45.10
2017-06-28T20:53:41.786Z,44.77
2017-06-28T20:56:09.485Z,45.73
2017-06-28T20:58:36.780Z,44.63
2017-06-28T21:01:04.178Z,41.90
2017-06-28T21:03:31.469Z,42.47
2017-06-28T21:05:58.824Z,41.10
2017-06-28T21:08:26.164Z,43.00
2017-06-28T21:10:53.472Z,41.93
2017-06-28T21:13:20.853Z,45.30
2017-06-28T21:15:48.171Z,47.47
2017-06-28T21:18:15.924Z,45.17
2017-06-28T21:20:43.248Z,44.03
2017-06-28T21:23:10.621Z,44.47
2017-06-28T21:25:37.940Z,43.73
2017-06-28T21:28:05.300Z,41.47
2017-06-28T21:30:32.660Z,43.60
2017-06-28T21:33:00.003Z,44.33
2017-06-28T21:35:27.342Z,44.23
2017-06-28T21:37:54.662Z,44.10
2017-06-28T21:40:22.905Z,45.10
2017-06-28T21:42:50.240Z,43.27
2017-06-28T21:45:17.619Z,43.77
2017-06-28T21:47:44.933Z,44.97
2017-06-28T21:50:12.285Z,42.50
2017-06-28T21:52:39.626Z,41.50
2017-06-28T21:55:06.968Z,43.80
2017-06-28T21:57:34.292Z,44.07
2017-06-28T22:00:01.658Z,44.23
2017-06-28T22:02:28.990Z,44.67
2017-06-28T22:04:56.341Z,45.07
2017-06-28T22:07:23.657Z,44.57
2017-06-28T22:09:51.339Z,43.07
2017-06-28T22:12:18.650Z,44.80
2017-06-28T22:14:46.053Z,46.37
2017-06-28T22:17:19.179Z,42.33
2017-06-28T22:19:52.426Z,43.83
2017-06-28T22:22:19.732Z,42.00
2017-06-28T22:24:47.041Z,45.57
2017-06-28T22:27:14.380Z,44.60
2017-06-28T22:29:41.712Z,44.73
2017-06-28T22:32:09.074Z,45.10
2017-06-28T22:34:36.703Z,44.60
2017-06-28T22:37:04.032Z,42.40
2017-06-28T22:39:31.344Z,45.27
2017-06-28T22:41:58.682Z,46.40
2017-06-28T22:44:26.003Z,50.23
2017-06-28T22:46:53.316Z,46.70
2017-06-28T22:49:20.655Z,47.80
2017-06-28T22:51:48.006Z,50.13
2017-06-28T22:54:15.334Z,49.03
2017-06-28T22:56:42.700Z,51.47
2017-06-28T22:59:10.086Z,50.23
2017-06-28T23:01:37.394Z,49.50
2017-06-28T23:04:04.730Z,50.50
2017-06-28T23:06:32.036Z,52.20
2017-06-28T23:08:59.397Z,49.60
2017-06-28T23:11:26.777Z,49.10
2017-06-28T23:13:54.116Z,45.37
2017-06-28T23:16:21.433Z,45.27
2017-06-28T23:18:48.766Z,46.00
2017-06-28T23:21:16.082Z,46.37
2017-06-28T23:23:43.458Z,50.10
2017-06-28T23:26:10.760Z,49.07
2017-06-28T23:28:38.121Z,49.23
2017-06-28T23:31:05.449Z,48.20
2017-06-28T23:33:32.766Z,52.00
2017-06-28T23:36:00.126Z,52.10
2017-06-28T23:38:28.274Z,51.27
2017-06-28T23:40:55.599Z,48.33
2017-06-28T23:43:22.917Z,45.90
2017-06-28T23:45:50.245Z,47.80
2017-06-28T23:48:17.549Z,52.13
2017-06-28T23:50:44.918Z,51.17
2017-06-28T23:53:12.252Z,50.57
2017-06-28T23:55:39.602Z,49.20
2017-06-28T23:58:06.920Z,47.00
